sensor_id;sensor_type;location;lat;lon;timestamp;temperature;humidity
84296;SHT31;74464;42.688;23.304;2024-03-23T00:54:06;4.09;65.69
84296;SHT31;74464;42.688;23.304;2024-03-23T00:56:32;3.99;66.28
84296;SHT31;74464;42.688;23.304;2024-03-23T00:59:00;4.18;66.08
84296;SHT31;74464;42.688;23.304;2024-03-23T01:01:25;3.98;66.15
84296;SHT31;74464;42.688;23.304;2024-03-23T01:03:51;4.01;65.88
84296;SHT31;74464;42.688;23.304;2024-03-23T01:06:17;4.06;65.87
84296;SHT31;74464;42.688;23.304;2024-03-23T01:08:42;4.08;65.43
84296;SHT31;74464;42.688;23.304;2024-03-23T01:11:08;4.02;65.30
84296;SHT31;74464;42.688;23.304;2024-03-23T01:13:33;4.02;65.48
84296;SHT31;74464;42.688;23.304;2024-03-23T01:15:59;4.19;65.44
84296;SHT31;74464;42.688;23.304;2024-03-23T01:18:25;4.08;65.55
84296;SHT31;74464;42.688;23.304;2024-03-23T01:20:54;3.88;66.23
84296;SHT31;74464;42.688;23.304;2024-03-23T01:23:21;3.99;65.57
84296;SHT31;74464;42.688;23.304;2024-03-23T01:25:55;4.08;65.17
84296;SHT31;74464;42.688;23.304;2024-03-23T01:28:21;3.73;66.41
84296;SHT31;74464;42.688;23.304;2024-03-23T01:30:47;3.44;67.09
84296;SHT31;74464;42.688;23.304;2024-03-23T01:33:14;3.19;67.45
84296;SHT31;74464;42.688;23.304;2024-03-23T01:35:41;3.16;68.05
84296;SHT31;74464;42.688;23.304;2024-03-23T01:38:06;3.15;68.56
84296;SHT31;74464;42.688;23.304;2024-03-23T01:40:32;3.07;69.43
84296;SHT31;74464;42.688;23.304;2024-03-23T01:43:03;3.05;69.74
84296;SHT31;74464;42.688;23.304;2024-03-23T01:45:31;3.11;69.72
84296;SHT31;74464;42.688;23.304;2024-03-23T01:47:57;3.18;69.52
84296;SHT31;74464;42.688;23.304;2024-03-23T01:50:23;3.20;69.39
84296;SHT31;74464;42.688;23.304;2024-03-23T01:52:51;3.25;69.28
84296;SHT31;74464;42.688;23.304;2024-03-23T01:55:18;3.13;69.52
84296;SHT31;74464;42.688;23.304;2024-03-23T01:57:45;2.98;70.14
84296;SHT31;74464;42.688;23.304;2024-03-23T02:00:11;2.74;71.11
84296;SHT31;74464;42.688;23.304;2024-03-23T02:02:47;2.64;71.63
84296;SHT31;74464;42.688;23.304;2024-03-23T02:05:14;2.70;71.60
84296;SHT31;74464;42.688;23.304;2024-03-23T02:07:42;2.64;71.66
84296;SHT31;74464;42.688;23.304;2024-03-23T02:10:10;2.64;71.75
84296;SHT31;74464;42.688;23.304;2024-03-23T02:12:36;2.77;71.36
84296;SHT31;74464;42.688;23.304;2024-03-23T02:15:03;2.57;71.90
84296;SHT31;74464;42.688;23.304;2024-03-23T02:17:30;2.54;72.19
84296;SHT31;74464;42.688;23.304;2024-03-23T02:19:57;2.67;71.83
84296;SHT31;74464;42.688;23.304;2024-03-23T02:22:24;2.52;72.23
84296;SHT31;74464;42.688;23.304;2024-03-23T02:24:49;2.49;72.43
84296;SHT31;74464;42.688;23.304;2024-03-23T02:27:16;2.39;72.93
84296;SHT31;74464;42.688;23.304;2024-03-23T02:29:41;2.44;72.76
84296;SHT31;74464;42.688;23.304;2024-03-23T02:32:07;2.50;72.63
84296;SHT31;74464;42.688;23.304;2024-03-23T02:34:35;2.36;72.98
84296;SHT31;74464;42.688;23.304;2024-03-23T02:37:02;2.35;73.11
84296;SHT31;74464;42.688;23.304;2024-03-23T02:39:27;2.40;72.76
84296;SHT31;74464;42.688;23.304;2024-03-23T02:41:53;2.37;72.81
84296;SHT31;74464;42.688;23.304;2024-03-23T02:44:18;2.29;73.20
84296;SHT31;74464;42.688;23.304;2024-03-23T02:46:45;2.32;73.26
84296;SHT31;74464;42.688;23.304;2024-03-23T02:49:11;2.33;73.25
84296;SHT31;74464;42.688;23.304;2024-03-23T02:51:37;2.35;72.97
84296;SHT31;74464;42.688;23.304;2024-03-23T02:54:04;2.42;72.52
84296;SHT31;74464;42.688;23.304;2024-03-23T02:56:32;2.49;72.30
84296;SHT31;74464;42.688;23.304;2024-03-23T02:58:59;2.37;72.79
84296;SHT31;74464;42.688;23.304;2024-03-23T03:01:24;2.46;72.63
84296;SHT31;74464;42.688;23.304;2024-03-23T03:03:51;2.49;72.44
84296;SHT31;74464;42.688;23.304;2024-03-23T03:06:24;2.53;72.30
84296;SHT31;74464;42.688;23.304;2024-03-23T03:08:50;2.56;72.03
84296;SHT31;74464;42.688;23.304;2024-03-23T03:11:16;2.52;72.05
84296;SHT31;74464;42.688;23.304;2024-03-23T03:13:42;2.63;71.76
84296;SHT31;74464;42.688;23.304;2024-03-23T03:16:11;2.39;72.50
84296;SHT31;74464;42.688;23.304;2024-03-23T03:18:37;2.65;71.73
84296;SHT31;74464;42.688;23.304;2024-03-23T03:21:04;2.54;71.91
84296;SHT31;74464;42.688;23.304;2024-03-23T03:23:31;2.57;71.69
84296;SHT31;74464;42.688;23.304;2024-03-23T03:25:56;2.39;72.36
84296;SHT31;74464;42.688;23.304;2024-03-23T03:28:23;2.24;73.01
84296;SHT31;74464;42.688;23.304;2024-03-23T03:30:49;2.29;73.07
84296;SHT31;74464;42.688;23.304;2024-03-23T03:33:15;2.46;72.30
84296;SHT31;74464;42.688;23.304;2024-03-23T03:35:42;2.42;72.42
84296;SHT31;74464;42.688;23.304;2024-03-23T03:38:08;2.52;72.18
84296;SHT31;74464;42.688;23.304;2024-03-23T03:40:34;2.65;71.68
84296;SHT31;74464;42.688;23.304;2024-03-23T03:43:00;2.74;71.37
84296;SHT31;74464;42.688;23.304;2024-03-23T03:45:26;2.61;71.63
84296;SHT31;74464;42.688;23.304;2024-03-23T03:47:53;2.63;71.88
84296;SHT31;74464;42.688;23.304;2024-03-23T03:50:21;2.54;71.65
84296;SHT31;74464;42.688;23.304;2024-03-23T03:52:48;2.54;71.95
84296;SHT31;74464;42.688;23.304;2024-03-23T03:55:14;2.40;72.38
84296;SHT31;74464;42.688;23.304;2024-03-23T03:57:41;2.36;72.69
84296;SHT31;74464;42.688;23.304;2024-03-23T04:00:07;2.28;72.84
84296;SHT31;74464;42.688;23.304;2024-03-23T04:02:37;2.39;72.53
84296;SHT31;74464;42.688;23.304;2024-03-23T04:05:03;2.49;71.97
84296;SHT31;74464;42.688;23.304;2024-03-23T04:07:28;2.52;72.02
84296;SHT31;74464;42.688;23.304;2024-03-23T04:09:54;2.36;72.32
84296;SHT31;74464;42.688;23.304;2024-03-23T04:12:20;2.49;72.24
84296;SHT31;74464;42.688;23.304;2024-03-23T04:14:45;2.46;72.32
84296;SHT31;74464;42.688;23.304;2024-03-23T04:17:11;2.37;72.41
84296;SHT31;74464;42.688;23.304;2024-03-23T04:19:39;2.24;72.91
84296;SHT31;74464;42.688;23.304;2024-03-23T04:22:14;2.33;72.77
84296;SHT31;74464;42.688;23.304;2024-03-23T04:24:39;2.54;72.16
84296;SHT31;74464;42.688;23.304;2024-03-23T04:27:05;2.35;72.45
84296;SHT31;74464;42.688;23.304;2024-03-23T04:29:31;2.37;72.64
84296;SHT31;74464;42.688;23.304;2024-03-23T04:31:58;2.33;72.76
84296;SHT31;74464;42.688;23.304;2024-03-23T04:34:23;2.43;72.33
84296;SHT31;74464;42.688;23.304;2024-03-23T04:36:49;2.61;71.79
84296;SHT31;74464;42.688;23.304;2024-03-23T04:39:15;2.70;71.48
84296;SHT31;74464;42.688;23.304;2024-03-23T04:41:40;2.81;71.38
84296;SHT31;74464;42.688;23.304;2024-03-23T04:44:06;2.97;70.90
84296;SHT31;74464;42.688;23.304;2024-03-23T04:46:33;3.02;70.51
84296;SHT31;74464;42.688;23.304;2024-03-23T04:49:00;3.01;70.29
84296;SHT31;74464;42.688;23.304;2024-03-23T04:51:35;3.02;70.16
84296;SHT31;74464;42.688;23.304;2024-03-23T04:54:01;2.97;69.85
84296;SHT31;74464;42.688;23.304;2024-03-23T04:56:29;3.11;70.31
84296;SHT31;74464;42.688;23.304;2024-03-23T04:58:56;3.09;69.44
84296;SHT31;74464;42.688;23.304;2024-03-23T05:01:26;2.84;70.18
84296;SHT31;74464;42.688;23.304;2024-03-23T05:03:53;2.77;70.54
84296;SHT31;74464;42.688;23.304;2024-03-23T05:06:19;2.94;70.12
84296;SHT31;74464;42.688;23.304;2024-03-23T05:08:45;3.11;69.51
84296;SHT31;74464;42.688;23.304;2024-03-23T05:11:12;3.22;69.00
84296;SHT31;74464;42.688;23.304;2024-03-23T05:13:37;3.22;69.38
84296;SHT31;74464;42.688;23.304;2024-03-23T05:16:03;3.26;69.24
84296;SHT31;74464;42.688;23.304;2024-03-23T05:18:29;3.35;68.96
84296;SHT31;74464;42.688;23.304;2024-03-23T05:20:56;3.39;68.97
84296;SHT31;74464;42.688;23.304;2024-03-23T05:23:23;3.52;68.48
84296;SHT31;74464;42.688;23.304;2024-03-23T05:25:49;3.57;68.23
84296;SHT31;74464;42.688;23.304;2024-03-23T05:28:15;3.70;68.34
84296;SHT31;74464;42.688;23.304;2024-03-23T05:30:41;3.78;68.07
84296;SHT31;74464;42.688;23.304;2024-03-23T05:33:07;3.88;67.27
84296;SHT31;74464;42.688;23.304;2024-03-23T05:35:34;4.01;66.58
84296;SHT31;74464;42.688;23.304;2024-03-23T05:38:00;4.09;65.69
84296;SHT31;74464;42.688;23.304;2024-03-23T05:40:26;4.09;65.82
84296;SHT31;74464;42.688;23.304;2024-03-23T05:42:52;4.40;64.23
84296;SHT31;74464;42.688;23.304;2024-03-23T05:45:19;4.40;63.97
84296;SHT31;74464;42.688;23.304;2024-03-23T05:47:45;4.20;64.39
84296;SHT31;74464;42.688;23.304;2024-03-23T05:50:10;4.36;64.18
84296;SHT31;74464;42.688;23.304;2024-03-23T05:52:38;4.65;63.20
84296;SHT31;74464;42.688;23.304;2024-03-23T05:55:08;4.67;62.94
84296;SHT31;74464;42.688;23.304;2024-03-23T05:57:34;4.88;62.29
84296;SHT31;74464;42.688;23.304;2024-03-23T06:00:00;4.89;62.16
84296;SHT31;74464;42.688;23.304;2024-03-23T06:02:27;4.95;61.65
84296;SHT31;74464;42.688;23.304;2024-03-23T06:04:52;5.02;61.63
84296;SHT31;74464;42.688;23.304;2024-03-23T06:07:18;5.15;61.05
84296;SHT31;74464;42.688;23.304;2024-03-23T06:09:44;5.32;60.65
84296;SHT31;74464;42.688;23.304;2024-03-23T06:12:10;5.42;60.17
84296;SHT31;74464;42.688;23.304;2024-03-23T06:14:36;5.61;59.74
84296;SHT31;74464;42.688;23.304;2024-03-23T06:17:02;5.74;59.35
84296;SHT31;74464;42.688;23.304;2024-03-23T06:19:27;5.44;59.77
84296;SHT31;74464;42.688;23.304;2024-03-23T06:21:53;5.36;60.98
84296;SHT31;74464;42.688;23.304;2024-03-23T06:24:22;5.78;59.33
84296;SHT31;74464;42.688;23.304;2024-03-23T06:26:47;6.05;58.39
84296;SHT31;74464;42.688;23.304;2024-03-23T06:29:13;6.32;57.54
84296;SHT31;74464;42.688;23.304;2024-03-23T06:31:39;6.47;57.18
84296;SHT31;74464;42.688;23.304;2024-03-23T06:34:05;6.67;56.67
84296;SHT31;74464;42.688;23.304;2024-03-23T06:36:32;6.80;55.68
84296;SHT31;74464;42.688;23.304;2024-03-23T06:38:58;6.96;55.57
84296;SHT31;74464;42.688;23.304;2024-03-23T06:41:26;6.95;55.22
84296;SHT31;74464;42.688;23.304;2024-03-23T06:43:52;7.03;56.37
84296;SHT31;74464;42.688;23.304;2024-03-23T06:46:19;7.08;55.54
84296;SHT31;74464;42.688;23.304;2024-03-23T06:48:45;7.02;54.56
84296;SHT31;74464;42.688;23.304;2024-03-23T06:51:12;7.12;54.53
84296;SHT31;74464;42.688;23.304;2024-03-23T06:53:39;7.13;54.73
84296;SHT31;74464;42.688;23.304;2024-03-23T06:56:06;7.19;54.92
84296;SHT31;74464;42.688;23.304;2024-03-23T06:58:32;7.34;54.02
84296;SHT31;74464;42.688;23.304;2024-03-23T07:00:58;7.55;53.58
84296;SHT31;74464;42.688;23.304;2024-03-23T07:03:24;7.67;53.02
84296;SHT31;74464;42.688;23.304;2024-03-23T07:05:51;7.73;52.80
84296;SHT31;74464;42.688;23.304;2024-03-23T07:08:16;7.68;52.54
84296;SHT31;74464;42.688;23.304;2024-03-23T07:10:48;7.88;52.20
84296;SHT31;74464;42.688;23.304;2024-03-23T07:13:17;8.14;51.70
84296;SHT31;74464;42.688;23.304;2024-03-23T07:15:54;8.25;51.17
84296;SHT31;74464;42.688;23.304;2024-03-23T07:18:21;8.25;50.81
84296;SHT31;74464;42.688;23.304;2024-03-23T07:21:00;8.30;50.82
84296;SHT31;74464;42.688;23.304;2024-03-23T07:23:28;8.01;51.22
84296;SHT31;74464;42.688;23.304;2024-03-23T07:26:04;7.92;51.95
84296;SHT31;74464;42.688;23.304;2024-03-23T07:28:31;8.03;51.54
84296;SHT31;74464;42.688;23.304;2024-03-23T07:31:08;8.09;51.82
84296;SHT31;74464;42.688;23.304;2024-03-23T07:33:36;8.36;50.87
84296;SHT31;74464;42.688;23.304;2024-03-23T07:36:02;8.05;51.25
84296;SHT31;74464;42.688;23.304;2024-03-23T07:38:36;8.14;51.19
84296;SHT31;74464;42.688;23.304;2024-03-23T07:41:08;8.36;50.83
84296;SHT31;74464;42.688;23.304;2024-03-23T07:43:35;8.36;50.51
84296;SHT31;74464;42.688;23.304;2024-03-23T07:46:01;8.38;50.33
84296;SHT31;74464;42.688;23.304;2024-03-23T07:48:28;8.47;50.21
84296;SHT31;74464;42.688;23.304;2024-03-23T07:51:07;8.26;50.66
84296;SHT31;74464;42.688;23.304;2024-03-23T07:53:34;8.23;51.29
84296;SHT31;74464;42.688;23.304;2024-03-23T07:58:26;8.41;51.19
84296;SHT31;74464;42.688;23.304;2024-03-23T08:01:11;8.72;49.92
84296;SHT31;74464;42.688;23.304;2024-03-23T08:03:38;8.98;49.43
84296;SHT31;74464;42.688;23.304;2024-03-23T08:09:05;8.95;49.49
84296;SHT31;74464;42.688;23.304;2024-03-23T08:11:32;9.24;49.25
84296;SHT31;74464;42.688;23.304;2024-03-23T08:13:59;9.57;48.47
84296;SHT31;74464;42.688;23.304;2024-03-23T08:16:28;9.58;47.96
84296;SHT31;74464;42.688;23.304;2024-03-23T08:18:54;9.78;47.77
84296;SHT31;74464;42.688;23.304;2024-03-23T08:21:21;9.81;47.55
84296;SHT31;74464;42.688;23.304;2024-03-23T08:23:50;9.68;47.66
84296;SHT31;74464;42.688;23.304;2024-03-23T08:26:16;9.51;48.17
84296;SHT31;74464;42.688;23.304;2024-03-23T08:28:43;9.36;48.33
84296;SHT31;74464;42.688;23.304;2024-03-23T08:31:12;9.54;48.02
84296;SHT31;74464;42.688;23.304;2024-03-23T08:33:39;9.78;47.03
84296;SHT31;74464;42.688;23.304;2024-03-23T08:36:07;9.59;47.73
84296;SHT31;74464;42.688;23.304;2024-03-23T08:38:35;9.99;48.80
84296;SHT31;74464;42.688;23.304;2024-03-23T08:41:08;10.37;46.47
84296;SHT31;74464;42.688;23.304;2024-03-23T08:43:41;10.46;45.20
84296;SHT31;74464;42.688;23.304;2024-03-23T08:46:13;10.43;44.92
84296;SHT31;74464;42.688;23.304;2024-03-23T08:48:43;10.51;45.31
84296;SHT31;74464;42.688;23.304;2024-03-23T08:51:13;10.50;45.36
84296;SHT31;74464;42.688;23.304;2024-03-23T08:53:39;10.78;44.47
84296;SHT31;74464;42.688;23.304;2024-03-23T08:56:07;10.75;44.93
84296;SHT31;74464;42.688;23.304;2024-03-23T08:58:35;10.96;44.84
84296;SHT31;74464;42.688;23.304;2024-03-23T09:01:13;10.93;44.63
84296;SHT31;74464;42.688;23.304;2024-03-23T09:03:39;10.95;44.47
84296;SHT31;74464;42.688;23.304;2024-03-23T09:06:14;11.05;44.71
84296;SHT31;74464;42.688;23.304;2024-03-23T09:08:42;11.16;44.73
84296;SHT31;74464;42.688;23.304;2024-03-23T09:11:10;11.41;43.73
84296;SHT31;74464;42.688;23.304;2024-03-23T09:13:37;11.27;43.61
84296;SHT31;74464;42.688;23.304;2024-03-23T09:16:04;11.51;44.00
84296;SHT31;74464;42.688;23.304;2024-03-23T09:18:34;11.78;43.41
84296;SHT31;74464;42.688;23.304;2024-03-23T09:21:11;11.96;42.50
84296;SHT31;74464;42.688;23.304;2024-03-23T09:23:46;12.30;41.84
84296;SHT31;74464;42.688;23.304;2024-03-23T09:26:13;12.46;41.26
84296;SHT31;74464;42.688;23.304;2024-03-23T09:28:39;12.53;41.09
84296;SHT31;74464;42.688;23.304;2024-03-23T09:31:05;12.44;40.60
84296;SHT31;74464;42.688;23.304;2024-03-23T09:33:34;12.30;41.06
84296;SHT31;74464;42.688;23.304;2024-03-23T09:36:03;12.34;41.35
84296;SHT31;74464;42.688;23.304;2024-03-23T09:38:31;12.56;40.53
84296;SHT31;74464;42.688;23.304;2024-03-23T09:40:57;12.67;40.15
84296;SHT31;74464;42.688;23.304;2024-03-23T09:43:22;12.78;40.46
84296;SHT31;74464;42.688;23.304;2024-03-23T09:45:49;12.78;40.25
84296;SHT31;74464;42.688;23.304;2024-03-23T09:48:15;13.03;39.79
84296;SHT31;74464;42.688;23.304;2024-03-23T09:50:44;12.92;40.08
84296;SHT31;74464;42.688;23.304;2024-03-23T09:53:14;13.19;38.89
84296;SHT31;74464;42.688;23.304;2024-03-23T09:55:43;12.95;38.43
84296;SHT31;74464;42.688;23.304;2024-03-23T09:58:13;12.51;39.42
84296;SHT31;74464;42.688;23.304;2024-03-23T10:00:39;12.87;39.03
84296;SHT31;74464;42.688;23.304;2024-03-23T10:03:05;13.29;38.48
84296;SHT31;74464;42.688;23.304;2024-03-23T10:05:32;13.46;38.00
84296;SHT31;74464;42.688;23.304;2024-03-23T10:08:17;13.54;37.62
84296;SHT31;74464;42.688;23.304;2024-03-23T10:10:45;13.65;37.25
84296;SHT31;74464;42.688;23.304;2024-03-23T10:13:24;13.81;37.34
84296;SHT31;74464;42.688;23.304;2024-03-23T10:15:55;13.89;36.30
84296;SHT31;74464;42.688;23.304;2024-03-23T10:18:21;14.04;35.41
84296;SHT31;74464;42.688;23.304;2024-03-23T10:21:09;14.18;35.35
84296;SHT31;74464;42.688;23.304;2024-03-23T10:23:37;14.40;35.32
84296;SHT31;74464;42.688;23.304;2024-03-23T10:26:25;14.51;34.85
84296;SHT31;74464;42.688;23.304;2024-03-23T10:31:20;14.95;33.40
84296;SHT31;74464;42.688;23.304;2024-03-23T10:33:46;14.47;34.09
84296;SHT31;74464;42.688;23.304;2024-03-23T10:36:14;14.29;34.87
84296;SHT31;74464;42.688;23.304;2024-03-23T10:38:50;14.09;34.79
84296;SHT31;74464;42.688;23.304;2024-03-23T10:41:16;14.43;34.47
84296;SHT31;74464;42.688;23.304;2024-03-23T10:43:43;14.59;33.58
84296;SHT31;74464;42.688;23.304;2024-03-23T10:46:11;14.70;33.61
84296;SHT31;74464;42.688;23.304;2024-03-23T10:48:37;14.77;33.68
84296;SHT31;74464;42.688;23.304;2024-03-23T10:51:07;14.75;34.02
84296;SHT31;74464;42.688;23.304;2024-03-23T10:53:33;14.96;33.73
84296;SHT31;74464;42.688;23.304;2024-03-23T10:56:00;15.18;33.16
84296;SHT31;74464;42.688;23.304;2024-03-23T10:58:38;15.40;33.59
84296;SHT31;74464;42.688;23.304;2024-03-23T11:01:04;15.50;32.95
84296;SHT31;74464;42.688;23.304;2024-03-23T11:03:35;15.73;33.27
84296;SHT31;74464;42.688;23.304;2024-03-23T11:06:05;15.92;33.23
84296;SHT31;74464;42.688;23.304;2024-03-23T11:08:36;15.84;32.58
84296;SHT31;74464;42.688;23.304;2024-03-23T11:11:17;15.91;32.89
84296;SHT31;74464;42.688;23.304;2024-03-23T11:13:44;15.92;32.85
84296;SHT31;74464;42.688;23.304;2024-03-23T11:18:39;15.63;33.00
84296;SHT31;74464;42.688;23.304;2024-03-23T11:21:07;15.87;32.20
84296;SHT31;74464;42.688;23.304;2024-03-23T11:23:32;15.82;32.40
84296;SHT31;74464;42.688;23.304;2024-03-23T11:25:58;16.01;32.46
84296;SHT31;74464;42.688;23.304;2024-03-23T11:28:24;16.11;32.58
84296;SHT31;74464;42.688;23.304;2024-03-23T11:30:51;15.74;32.55
84296;SHT31;74464;42.688;23.304;2024-03-23T11:33:17;15.82;32.24
84296;SHT31;74464;42.688;23.304;2024-03-23T11:35:43;15.95;32.44
84296;SHT31;74464;42.688;23.304;2024-03-23T11:40:45;15.92;32.28
84296;SHT31;74464;42.688;23.304;2024-03-23T11:43:18;15.84;32.14
84296;SHT31;74464;42.688;23.304;2024-03-23T11:45:52;16.06;32.08
84296;SHT31;74464;42.688;23.304;2024-03-23T11:48:22;16.22;30.71
84296;SHT31;74464;42.688;23.304;2024-03-23T11:50:50;16.42;30.47
84296;SHT31;74464;42.688;23.304;2024-03-23T11:53:24;16.13;31.17
84296;SHT31;74464;42.688;23.304;2024-03-23T11:55:57;16.42;30.99
84296;SHT31;74464;42.688;23.304;2024-03-23T11:58:27;16.45;30.58
84296;SHT31;74464;42.688;23.304;2024-03-23T12:01:01;16.20;30.32
84296;SHT31;74464;42.688;23.304;2024-03-23T12:03:31;16.49;29.93
84296;SHT31;74464;42.688;23.304;2024-03-23T12:05:59;16.53;30.29
84296;SHT31;74464;42.688;23.304;2024-03-23T12:08:36;16.37;29.86
84296;SHT31;74464;42.688;23.304;2024-03-23T12:11:08;16.74;29.22
84296;SHT31;74464;42.688;23.304;2024-03-23T12:13:35;17.02;29.39
84296;SHT31;74464;42.688;23.304;2024-03-23T12:18:40;17.18;28.66
84296;SHT31;74464;42.688;23.304;2024-03-23T12:21:06;17.19;26.75
84296;SHT31;74464;42.688;23.304;2024-03-23T12:23:33;16.88;26.51
84296;SHT31;74464;42.688;23.304;2024-03-23T12:25:59;17.28;24.10
84296;SHT31;74464;42.688;23.304;2024-03-23T12:28:25;17.01;23.89
84296;SHT31;74464;42.688;23.304;2024-03-23T12:30:51;17.23;23.50
84296;SHT31;74464;42.688;23.304;2024-03-23T12:33:20;17.56;23.90
84296;SHT31;74464;42.688;23.304;2024-03-23T12:35:51;17.78;22.37
84296;SHT31;74464;42.688;23.304;2024-03-23T12:38:16;17.88;21.86
84296;SHT31;74464;42.688;23.304;2024-03-23T12:40:46;17.26;22.22
84296;SHT31;74464;42.688;23.304;2024-03-23T12:43:14;16.98;22.30
84296;SHT31;74464;42.688;23.304;2024-03-23T12:45:40;17.14;22.09
84296;SHT31;74464;42.688;23.304;2024-03-23T12:48:06;17.56;22.88
84296;SHT31;74464;42.688;23.304;2024-03-23T12:50:32;17.84;22.18
84296;SHT31;74464;42.688;23.304;2024-03-23T12:52:58;17.92;21.55
84296;SHT31;74464;42.688;23.304;2024-03-23T12:55:23;17.53;21.40
84296;SHT31;74464;42.688;23.304;2024-03-23T12:57:50;17.35;21.71
84296;SHT31;74464;42.688;23.304;2024-03-23T13:00:16;17.60;21.67
84296;SHT31;74464;42.688;23.304;2024-03-23T13:02:42;17.71;21.55
84296;SHT31;74464;42.688;23.304;2024-03-23T13:05:08;17.66;22.16
84296;SHT31;74464;42.688;23.304;2024-03-23T13:07:37;17.42;21.63
84296;SHT31;74464;42.688;23.304;2024-03-23T13:10:07;17.78;21.90
84296;SHT31;74464;42.688;23.304;2024-03-23T13:12:33;17.77;22.09
84296;SHT31;74464;42.688;23.304;2024-03-23T13:15:02;17.80;21.21
84296;SHT31;74464;42.688;23.304;2024-03-23T13:17:28;17.42;21.83
84296;SHT31;74464;42.688;23.304;2024-03-23T13:19:54;17.97;22.05
84296;SHT31;74464;42.688;23.304;2024-03-23T13:22:22;18.64;20.74
84296;SHT31;74464;42.688;23.304;2024-03-23T13:24:48;18.65;20.93
84296;SHT31;74464;42.688;23.304;2024-03-23T13:27:13;19.62;19.96
84296;SHT31;74464;42.688;23.304;2024-03-23T13:29:39;19.60;20.11
84296;SHT31;74464;42.688;23.304;2024-03-23T13:32:05;18.35;21.27
84296;SHT31;74464;42.688;23.304;2024-03-23T13:34:31;19.25;20.42
84296;SHT31;74464;42.688;23.304;2024-03-23T13:36:58;19.50;20.45
84296;SHT31;74464;42.688;23.304;2024-03-23T13:39:25;20.42;19.72
84296;SHT31;74464;42.688;23.304;2024-03-23T13:41:54;20.88;18.97
84296;SHT31;74464;42.688;23.304;2024-03-23T13:44:21;21.15;18.55
84296;SHT31;74464;42.688;23.304;2024-03-23T13:46:47;21.41;18.47
84296;SHT31;74464;42.688;23.304;2024-03-23T13:49:28;21.46;18.95
84296;SHT31;74464;42.688;23.304;2024-03-23T13:51:55;21.83;18.57
84296;SHT31;74464;42.688;23.304;2024-03-23T13:54:21;21.80;18.09
84296;SHT31;74464;42.688;23.304;2024-03-23T13:56:56;21.80;18.21
84296;SHT31;74464;42.688;23.304;2024-03-23T13:59:22;21.50;18.67
84296;SHT31;74464;42.688;23.304;2024-03-23T14:01:51;21.46;18.37
84296;SHT31;74464;42.688;23.304;2024-03-23T14:04:17;21.52;18.55
84296;SHT31;74464;42.688;23.304;2024-03-23T14:06:45;21.46;19.27
84296;SHT31;74464;42.688;23.304;2024-03-23T14:09:12;21.52;18.70
84296;SHT31;74464;42.688;23.304;2024-03-23T14:11:38;21.56;18.90
84296;SHT31;74464;42.688;23.304;2024-03-23T14:14:04;21.63;18.77
84296;SHT31;74464;42.688;23.304;2024-03-23T14:16:31;21.39;19.17
84296;SHT31;74464;42.688;23.304;2024-03-23T14:18:57;21.35;18.86
84296;SHT31;74464;42.688;23.304;2024-03-23T14:21:23;21.46;19.00
84296;SHT31;74464;42.688;23.304;2024-03-23T14:23:49;21.18;19.31
84296;SHT31;74464;42.688;23.304;2024-03-23T14:26:16;21.09;19.82
84296;SHT31;74464;42.688;23.304;2024-03-23T14:28:41;21.17;19.36
84296;SHT31;74464;42.688;23.304;2024-03-23T14:31:07;21.14;19.71
84296;SHT31;74464;42.688;23.304;2024-03-23T14:33:38;21.25;19.68
84296;SHT31;74464;42.688;23.304;2024-03-23T14:36:16;21.02;20.15
84296;SHT31;74464;42.688;23.304;2024-03-23T14:38:47;20.92;20.15
84296;SHT31;74464;42.688;23.304;2024-03-23T14:41:12;20.69;20.63
84296;SHT31;74464;42.688;23.304;2024-03-23T14:43:38;19.73;21.26
84296;SHT31;74464;42.688;23.304;2024-03-23T14:46:10;20.14;21.22
84296;SHT31;74464;42.688;23.304;2024-03-23T14:48:37;20.42;21.49
84296;SHT31;74464;42.688;23.304;2024-03-23T14:51:03;19.63;21.70
84296;SHT31;74464;42.688;23.304;2024-03-23T14:53:34;19.54;21.94
84296;SHT31;74464;42.688;23.304;2024-03-23T14:56:01;19.66;21.99
84296;SHT31;74464;42.688;23.304;2024-03-23T14:58:27;19.71;22.02
84296;SHT31;74464;42.688;23.304;2024-03-23T15:01:00;19.42;22.29
84296;SHT31;74464;42.688;23.304;2024-03-23T15:03:26;18.91;23.21
84296;SHT31;74464;42.688;23.304;2024-03-23T15:05:56;18.90;23.54
84296;SHT31;74464;42.688;23.304;2024-03-23T15:08:22;18.64;23.97
84296;SHT31;74464;42.688;23.304;2024-03-23T15:10:48;18.49;23.73
84296;SHT31;74464;42.688;23.304;2024-03-23T15:13:14;18.24;24.02
84296;SHT31;74464;42.688;23.304;2024-03-23T15:15:44;17.77;24.67
84296;SHT31;74464;42.688;23.304;2024-03-23T15:18:13;17.82;24.91
84296;SHT31;74464;42.688;23.304;2024-03-23T15:20:41;17.90;25.25
84296;SHT31;74464;42.688;23.304;2024-03-23T15:23:06;17.67;25.81
84296;SHT31;74464;42.688;23.304;2024-03-23T15:25:32;17.75;25.53
84296;SHT31;74464;42.688;23.304;2024-03-23T15:27:58;17.78;25.28
84296;SHT31;74464;42.688;23.304;2024-03-23T15:30:26;17.77;25.20
84296;SHT31;74464;42.688;23.304;2024-03-23T15:32:51;17.51;25.16
84296;SHT31;74464;42.688;23.304;2024-03-23T15:35:17;17.49;25.31
84296;SHT31;74464;42.688;23.304;2024-03-23T15:37:44;17.47;25.39
84296;SHT31;74464;42.688;23.304;2024-03-23T15:40:10;17.33;25.16
84296;SHT31;74464;42.688;23.304;2024-03-23T15:42:38;17.16;25.60
84296;SHT31;74464;42.688;23.304;2024-03-23T15:45:06;17.04;26.01
84296;SHT31;74464;42.688;23.304;2024-03-23T15:47:33;17.16;26.42
84296;SHT31;74464;42.688;23.304;2024-03-23T15:49:59;17.19;26.38
84296;SHT31;74464;42.688;23.304;2024-03-23T15:52:25;17.18;26.24
84296;SHT31;74464;42.688;23.304;2024-03-23T15:54:51;17.08;26.69
84296;SHT31;74464;42.688;23.304;2024-03-23T15:57:18;16.87;26.76
84296;SHT31;74464;42.688;23.304;2024-03-23T15:59:43;16.95;27.11
84296;SHT31;74464;42.688;23.304;2024-03-23T16:02:09;17.02;27.22
84296;SHT31;74464;42.688;23.304;2024-03-23T16:04:35;16.94;26.56
84296;SHT31;74464;42.688;23.304;2024-03-23T16:07:01;16.94;26.79
84296;SHT31;74464;42.688;23.304;2024-03-23T16:09:26;16.82;26.80
84296;SHT31;74464;42.688;23.304;2024-03-23T16:11:54;16.80;26.82
84296;SHT31;74464;42.688;23.304;2024-03-23T16:14:19;16.74;27.27
84296;SHT31;74464;42.688;23.304;2024-03-23T16:16:46;16.65;27.04
84296;SHT31;74464;42.688;23.304;2024-03-23T16:19:12;16.60;26.68
84296;SHT31;74464;42.688;23.304;2024-03-23T16:21:38;16.40;25.77
84296;SHT31;74464;42.688;23.304;2024-03-23T16:24:04;16.36;25.82
84296;SHT31;74464;42.688;23.304;2024-03-23T16:26:30;16.26;25.93
84296;SHT31;74464;42.688;23.304;2024-03-23T16:28:55;16.26;26.33
84296;SHT31;74464;42.688;23.304;2024-03-23T16:31:21;16.20;26.81
84296;SHT31;74464;42.688;23.304;2024-03-23T16:33:47;16.12;27.53